sensor_id;sensor_type;location;lat;lon;timestamp;temperature;humidity
75217;HTU21D;63800;51.972;5.682;2023-12-28T00:01:27;-9.92;118.99
75217;HTU21D;63800;51.972;5.682;2023-12-28T00:03:52;-9.90;118.99
75217;HTU21D;63800;51.972;5.682;2023-12-28T00:06:18;-9.93;118.99
75217;HTU21D;63800;51.972;5.682;2023-12-28T00:08:43;-9.93;118.99
75217;HTU21D;63800;51.972;5.682;2023-12-28T00:11:09;-9.94;118.99
75217;HTU21D;63800;51.972;5.682;2023-12-28T00:13:34;-9.96;118.99
75217;HTU21D;63800;51.972;5.682;2023-12-28T00:16:00;-9.93;118.99
75217;HTU21D;63800;51.972;5.682;2023-12-28T00:18:25;-9.96;118.99
75217;HTU21D;63800;51.972;5.682;2023-12-28T00:20:52;-9.98;118.99
75217;HTU21D;63800;51.972;5.682;2023-12-28T00:23:19;-9.99;118.99
75217;HTU21D;63800;51.972;5.682;2023-12-28T00:25:47;-9.99;118.99
75217;HTU21D;63800;51.972;5.682;2023-12-28T00:28:12;-10.03;118.99
75217;HTU21D;63800;51.972;5.682;2023-12-28T00:30:38;-9.99;118.99
75217;HTU21D;63800;51.972;5.682;2023-12-28T00:33:03;-9.98;118.99
75217;HTU21D;63800;51.972;5.682;2023-12-28T00:35:29;-9.99;118.99
75217;HTU21D;63800;51.972;5.682;2023-12-28T00:37:54;-10.01;118.99
75217;HTU21D;63800;51.972;5.682;2023-12-28T00:40:20;-10.00;118.99
75217;HTU21D;63800;51.972;5.682;2023-12-28T00:42:47;-9.99;118.99
75217;HTU21D;63800;51.972;5.682;2023-12-28T00:45:12;-10.00;118.99
75217;HTU21D;63800;51.972;5.682;2023-12-28T00:47:38;-10.02;118.99
75217;HTU21D;63800;51.972;5.682;2023-12-28T00:50:04;-10.05;118.99
75217;HTU21D;63800;51.972;5.682;2023-12-28T00:52:29;-10.04;118.99
75217;HTU21D;63800;51.972;5.682;2023-12-28T00:54:55;-10.04;118.99
75217;HTU21D;63800;51.972;5.682;2023-12-28T00:57:20;-10.04;118.99
75217;HTU21D;63800;51.972;5.682;2023-12-28T00:59:46;-10.05;118.99
75217;HTU21D;63800;51.972;5.682;2023-12-28T01:02:11;-10.08;118.99
75217;HTU21D;63800;51.972;5.682;2023-12-28T01:04:36;-10.08;118.99
75217;HTU21D;63800;51.972;5.682;2023-12-28T01:07:02;-10.07;118.99
75217;HTU21D;63800;51.972;5.682;2023-12-28T01:09:30;-10.10;118.99
75217;HTU21D;63800;51.972;5.682;2023-12-28T01:11:57;-10.14;118.99
75217;HTU21D;63800;51.972;5.682;2023-12-28T01:14:23;-10.17;118.99
75217;HTU21D;63800;51.972;5.682;2023-12-28T01:16:48;-10.15;118.99
75217;HTU21D;63800;51.972;5.682;2023-12-28T01:19:14;-10.18;118.99
75217;HTU21D;63800;51.972;5.682;2023-12-28T01:21:39;-10.21;118.99
75217;HTU21D;63800;51.972;5.682;2023-12-28T01:24:05;-10.25;118.99
75217;HTU21D;63800;51.972;5.682;2023-12-28T01:26:30;-10.26;118.99
75217;HTU21D;63800;51.972;5.682;2023-12-28T01:28:55;-10.26;118.99
75217;HTU21D;63800;51.972;5.682;2023-12-28T01:31:22;-10.28;118.99
75217;HTU21D;63800;51.972;5.682;2023-12-28T01:33:47;-10.29;118.99
75217;HTU21D;63800;51.972;5.682;2023-12-28T01:36:20;-10.30;118.99
75217;HTU21D;63800;51.972;5.682;2023-12-28T01:38:46;-10.29;118.99
75217;HTU21D;63800;51.972;5.682;2023-12-28T01:41:11;-10.30;118.99
75217;HTU21D;63800;51.972;5.682;2023-12-28T01:43:38;-10.33;118.99
75217;HTU21D;63800;51.972;5.682;2023-12-28T01:46:08;-10.34;118.99
75217;HTU21D;63800;51.972;5.682;2023-12-28T01:48:35;-10.32;118.99
75217;HTU21D;63800;51.972;5.682;2023-12-28T01:51:02;-10.31;118.99
75217;HTU21D;63800;51.972;5.682;2023-12-28T01:53:28;-10.34;118.99
75217;HTU21D;63800;51.972;5.682;2023-12-28T01:55:54;-10.33;118.99
75217;HTU21D;63800;51.972;5.682;2023-12-28T01:58:20;-10.35;118.99
75217;HTU21D;63800;51.972;5.682;2023-12-28T02:00:46;-10.36;118.99
75217;HTU21D;63800;51.972;5.682;2023-12-28T02:03:12;-10.37;118.99
75217;HTU21D;63800;51.972;5.682;2023-12-28T02:05:37;-10.40;118.99
75217;HTU21D;63800;51.972;5.682;2023-12-28T02:08:03;-10.43;118.99
75217;HTU21D;63800;51.972;5.682;2023-12-28T02:10:29;-10.40;118.99
75217;HTU21D;63800;51.972;5.682;2023-12-28T02:12:55;-10.43;118.99
75217;HTU21D;63800;51.972;5.682;2023-12-28T02:15:21;-10.41;118.99
75217;HTU21D;63800;51.972;5.682;2023-12-28T02:20:19;-10.42;118.99
75217;HTU21D;63800;51.972;5.682;2023-12-28T02:22:46;-10.57;118.99
75217;HTU21D;63800;51.972;5.682;2023-12-28T02:25:12;-10.47;118.99
75217;HTU21D;63800;51.972;5.682;2023-12-28T02:27:45;-10.48;118.99
75217;HTU21D;63800;51.972;5.682;2023-12-28T02:30:13;-10.48;118.99
75217;HTU21D;63800;51.972;5.682;2023-12-28T02:35:54;-10.49;118.99
75217;HTU21D;63800;51.972;5.682;2023-12-28T02:38:23;-10.47;118.99
75217;HTU21D;63800;51.972;5.682;2023-12-28T02:40:49;-10.50;118.99
75217;HTU21D;63800;51.972;5.682;2023-12-28T02:43:15;-10.48;118.99
75217;HTU21D;63800;51.972;5.682;2023-12-28T02:45:41;-10.51;118.99
75217;HTU21D;63800;51.972;5.682;2023-12-28T02:48:06;-10.49;118.99
75217;HTU21D;63800;51.972;5.682;2023-12-28T02:50:33;-10.47;118.99
75217;HTU21D;63800;51.972;5.682;2023-12-28T02:52:58;-10.52;118.99
75217;HTU21D;63800;51.972;5.682;2023-12-28T02:55:24;-10.50;118.99
75217;HTU21D;63800;51.972;5.682;2023-12-28T02:57:51;-10.48;118.99
75217;HTU21D;63800;51.972;5.682;2023-12-28T03:00:17;-10.50;118.99
75217;HTU21D;63800;51.972;5.682;2023-12-28T03:02:43;-10.50;118.99
75217;HTU21D;63800;51.972;5.682;2023-12-28T03:05:09;-10.48;118.99
75217;HTU21D;63800;51.972;5.682;2023-12-28T03:07:35;-10.46;118.99
75217;HTU21D;63800;51.972;5.682;2023-12-28T03:10:01;-10.45;118.99
75217;HTU21D;63800;51.972;5.682;2023-12-28T03:12:27;-10.47;118.99
75217;HTU21D;63800;51.972;5.682;2023-12-28T03:14:53;-10.46;118.99
75217;HTU21D;63800;51.972;5.682;2023-12-28T03:17:18;-10.47;118.99
75217;HTU21D;63800;51.972;5.682;2023-12-28T03:19:44;-10.47;118.99
75217;HTU21D;63800;51.972;5.682;2023-12-28T03:22:09;-10.40;118.99
75217;HTU21D;63800;51.972;5.682;2023-12-28T03:24:37;-10.40;118.99
75217;HTU21D;63800;51.972;5.682;2023-12-28T03:27:04;-10.36;118.99
75217;HTU21D;63800;51.972;5.682;2023-12-28T03:29:29;-10.33;118.99
75217;HTU21D;63800;51.972;5.682;2023-12-28T03:31:55;-10.29;118.99
75217;HTU21D;63800;51.972;5.682;2023-12-28T03:34:20;-10.25;118.99
75217;HTU21D;63800;51.972;5.682;2023-12-28T03:36:47;-10.26;118.99
75217;HTU21D;63800;51.972;5.682;2023-12-28T03:39:12;-10.26;118.99
75217;HTU21D;63800;51.972;5.682;2023-12-28T03:41:38;-10.20;118.99
75217;HTU21D;63800;51.972;5.682;2023-12-28T03:44:03;-10.21;118.99
75217;HTU21D;63800;51.972;5.682;2023-12-28T03:46:29;-10.19;118.99
75217;HTU21D;63800;51.972;5.682;2023-12-28T03:48:54;-10.20;118.99
75217;HTU21D;63800;51.972;5.682;2023-12-28T03:51:19;-10.13;118.99
75217;HTU21D;63800;51.972;5.682;2023-12-28T03:53:45;-10.11;118.99
75217;HTU21D;63800;51.972;5.682;2023-12-28T03:56:24;-10.04;118.99
75217;HTU21D;63800;51.972;5.682;2023-12-28T03:58:50;-10.05;118.99
75217;HTU21D;63800;51.972;5.682;2023-12-28T04:01:21;-10.05;118.99
75217;HTU21D;63800;51.972;5.682;2023-12-28T04:03:48;-10.04;118.99
75217;HTU21D;63800;51.972;5.682;2023-12-28T04:06:14;-9.98;118.99
75217;HTU21D;63800;51.972;5.682;2023-12-28T04:08:40;-9.97;118.99
75217;HTU21D;63800;51.972;5.682;2023-12-28T04:11:06;-10.00;118.99
75217;HTU21D;63800;51.972;5.682;2023-12-28T04:13:31;-9.97;118.99
75217;HTU21D;63800;51.972;5.682;2023-12-28T04:15:57;-9.99;118.99
75217;HTU21D;63800;51.972;5.682;2023-12-28T04:18:22;-9.98;118.99
75217;HTU21D;63800;51.972;5.682;2023-12-28T04:20:48;-9.94;118.99
75217;HTU21D;63800;51.972;5.682;2023-12-28T04:23:14;-9.97;118.99
75217;HTU21D;63800;51.972;5.682;2023-12-28T04:25:39;-9.96;118.99
75217;HTU21D;63800;51.972;5.682;2023-12-28T04:28:06;-9.92;118.99
75217;HTU21D;63800;51.972;5.682;2023-12-28T04:30:31;-9.90;118.99
75217;HTU21D;63800;51.972;5.682;2023-12-28T04:32:56;-9.93;118.99
75217;HTU21D;63800;51.972;5.682;2023-12-28T04:35:22;-9.93;118.99
75217;HTU21D;63800;51.972;5.682;2023-12-28T04:37:47;-9.91;118.99
75217;HTU21D;63800;51.972;5.682;2023-12-28T04:40:13;-9.93;118.99
75217;HTU21D;63800;51.972;5.682;2023-12-28T04:42:40;-9.92;118.99
75217;HTU21D;63800;51.972;5.682;2023-12-28T04:45:06;-9.92;118.99
75217;HTU21D;63800;51.972;5.682;2023-12-28T04:47:32;-9.89;118.99
75217;HTU21D;63800;51.972;5.682;2023-12-28T04:49:57;-9.90;118.99
75217;HTU21D;63800;51.972;5.682;2023-12-28T04:52:23;-9.82;118.99
75217;HTU21D;63800;51.972;5.682;2023-12-28T04:54:48;-9.85;118.99
75217;HTU21D;63800;51.972;5.682;2023-12-28T04:57:13;-9.89;118.99
75217;HTU21D;63800;51.972;5.682;2023-12-28T04:59:40;-9.87;118.99
75217;HTU21D;63800;51.972;5.682;2023-12-28T05:02:05;-9.85;118.99
75217;HTU21D;63800;51.972;5.682;2023-12-28T05:04:30;-9.85;118.99
75217;HTU21D;63800;51.972;5.682;2023-12-28T05:06:56;-9.81;118.99
75217;HTU21D;63800;51.972;5.682;2023-12-28T05:09:21;-9.79;118.99
75217;HTU21D;63800;51.972;5.682;2023-12-28T05:11:47;-9.81;118.99
75217;HTU21D;63800;51.972;5.682;2023-12-28T05:14:12;-9.73;118.99
75217;HTU21D;63800;51.972;5.682;2023-12-28T05:16:38;-9.77;118.99
75217;HTU21D;63800;51.972;5.682;2023-12-28T05:19:03;-9.76;118.99
75217;HTU21D;63800;51.972;5.682;2023-12-28T05:21:29;-9.73;118.99
75217;HTU21D;63800;51.972;5.682;2023-12-28T05:23:54;-9.73;118.99
75217;HTU21D;63800;51.972;5.682;2023-12-28T05:26:20;-9.71;118.99
75217;HTU21D;63800;51.972;5.682;2023-12-28T05:28:45;-9.68;118.99
75217;HTU21D;63800;51.972;5.682;2023-12-28T05:31:10;-9.66;118.99
75217;HTU21D;63800;51.972;5.682;2023-12-28T05:33:36;-9.68;118.99
75217;HTU21D;63800;51.972;5.682;2023-12-28T05:36:01;-9.67;118.99
75217;HTU21D;63800;51.972;5.682;2023-12-28T05:38:27;-9.62;118.99
75217;HTU21D;63800;51.972;5.682;2023-12-28T05:40:52;-9.59;118.99
75217;HTU21D;63800;51.972;5.682;2023-12-28T05:43:18;-9.61;118.99
75217;HTU21D;63800;51.972;5.682;2023-12-28T05:45:43;-9.62;118.99
75217;HTU21D;63800;51.972;5.682;2023-12-28T05:48:08;-9.63;118.99
75217;HTU21D;63800;51.972;5.682;2023-12-28T05:50:34;-9.58;118.99
75217;HTU21D;63800;51.972;5.682;2023-12-28T05:52:59;-9.56;118.99
75217;HTU21D;63800;51.972;5.682;2023-12-28T05:55:25;-9.55;118.99
75217;HTU21D;63800;51.972;5.682;2023-12-28T05:57:50;-9.58;118.99
75217;HTU21D;63800;51.972;5.682;2023-12-28T06:00:16;-9.58;118.99
75217;HTU21D;63800;51.972;5.682;2023-12-28T06:02:41;-9.57;118.99
75217;HTU21D;63800;51.972;5.682;2023-12-28T06:05:07;-9.57;118.99
75217;HTU21D;63800;51.972;5.682;2023-12-28T06:07:32;-9.59;118.99
75217;HTU21D;63800;51.972;5.682;2023-12-28T06:09:58;-9.55;118.99
75217;HTU21D;63800;51.972;5.682;2023-12-28T06:12:23;-9.53;118.99
75217;HTU21D;63800;51.972;5.682;2023-12-28T06:14:49;-9.52;118.99
75217;HTU21D;63800;51.972;5.682;2023-12-28T06:17:15;-9.55;118.99
75217;HTU21D;63800;51.972;5.682;2023-12-28T06:19:41;-9.55;118.99
75217;HTU21D;63800;51.972;5.682;2023-12-28T06:22:06;-9.54;118.99
75217;HTU21D;63800;51.972;5.682;2023-12-28T06:24:32;-9.56;118.99
75217;HTU21D;63800;51.972;5.682;2023-12-28T06:26:57;-9.56;118.99
75217;HTU21D;63800;51.972;5.682;2023-12-28T06:29:22;-9.55;118.99
75217;HTU21D;63800;51.972;5.682;2023-12-28T06:31:48;-9.54;118.99
75217;HTU21D;63800;51.972;5.682;2023-12-28T06:34:13;-9.55;118.99
75217;HTU21D;63800;51.972;5.682;2023-12-28T06:36:39;-9.53;118.99
75217;HTU21D;63800;51.972;5.682;2023-12-28T06:39:04;-9.52;118.99
75217;HTU21D;63800;51.972;5.682;2023-12-28T06:41:30;-9.51;118.99
75217;HTU21D;63800;51.972;5.682;2023-12-28T06:43:55;-9.49;118.99
75217;HTU21D;63800;51.972;5.682;2023-12-28T06:46:21;-9.49;118.99
75217;HTU21D;63800;51.972;5.682;2023-12-28T06:48:47;-9.45;118.99
75217;HTU21D;63800;51.972;5.682;2023-12-28T06:51:22;-9.46;118.99
75217;HTU21D;63800;51.972;5.682;2023-12-28T06:53:48;-9.47;118.99
75217;HTU21D;63800;51.972;5.682;2023-12-28T06:56:14;-9.45;118.99
75217;HTU21D;63800;51.972;5.682;2023-12-28T06:58:39;-9.44;118.99
75217;HTU21D;63800;51.972;5.682;2023-12-28T07:01:05;-9.44;118.99
75217;HTU21D;63800;51.972;5.682;2023-12-28T07:03:32;-9.46;118.99
75217;HTU21D;63800;51.972;5.682;2023-12-28T07:05:58;-9.47;118.99
75217;HTU21D;63800;51.972;5.682;2023-12-28T07:08:24;-9.47;118.99
75217;HTU21D;63800;51.972;5.682;2023-12-28T07:10:49;-9.47;118.99
75217;HTU21D;63800;51.972;5.682;2023-12-28T07:13:15;-9.46;118.99
75217;HTU21D;63800;51.972;5.682;2023-12-28T07:15:40;-9.44;118.99
75217;HTU21D;63800;51.972;5.682;2023-12-28T07:18:06;-9.43;118.99
75217;HTU21D;63800;51.972;5.682;2023-12-28T07:20:31;-9.45;118.99
75217;HTU21D;63800;51.972;5.682;2023-12-28T07:22:57;-9.48;118.99
75217;HTU21D;63800;51.972;5.682;2023-12-28T07:25:23;-9.48;118.99
75217;HTU21D;63800;51.972;5.682;2023-12-28T07:27:48;-9.47;118.99
75217;HTU21D;63800;51.972;5.682;2023-12-28T07:30:14;-9.49;118.99
75217;HTU21D;63800;51.972;5.682;2023-12-28T07:32:42;-9.52;118.99
75217;HTU21D;63800;51.972;5.682;2023-12-28T07:35:08;-9.55;118.99
75217;HTU21D;63800;51.972;5.682;2023-12-28T07:37:34;-9.56;118.99
75217;HTU21D;63800;51.972;5.682;2023-12-28T07:40:00;-9.61;118.99
75217;HTU21D;63800;51.972;5.682;2023-12-28T07:42:25;-9.61;118.99
75217;HTU21D;63800;51.972;5.682;2023-12-28T07:44:51;-9.64;118.99
75217;HTU21D;63800;51.972;5.682;2023-12-28T07:47:16;-9.64;118.99
75217;HTU21D;63800;51.972;5.682;2023-12-28T07:49:42;-9.67;118.99
75217;HTU21D;63800;51.972;5.682;2023-12-28T07:52:07;-9.62;118.99
75217;HTU21D;63800;51.972;5.682;2023-12-28T07:54:33;-9.60;118.99
75217;HTU21D;63800;51.972;5.682;2023-12-28T07:56:59;-9.58;118.99
75217;HTU21D;63800;51.972;5.682;2023-12-28T07:59:24;-9.60;118.99
75217;HTU21D;63800;51.972;5.682;2023-12-28T08:01:50;-9.59;118.99
75217;HTU21D;63800;51.972;5.682;2023-12-28T08:04:15;-9.57;118.99
75217;HTU21D;63800;51.972;5.682;2023-12-28T08:06:41;-9.55;118.99
75217;HTU21D;63800;51.972;5.682;2023-12-28T08:09:06;-9.53;118.99
75217;HTU21D;63800;51.972;5.682;2023-12-28T08:11:32;-9.54;118.99
75217;HTU21D;63800;51.972;5.682;2023-12-28T08:13:57;-9.55;118.99
75217;HTU21D;63800;51.972;5.682;2023-12-28T08:16:23;-9.57;118.99
75217;HTU21D;63800;51.972;5.682;2023-12-28T08:18:48;-9.57;118.99
75217;HTU21D;63800;51.972;5.682;2023-12-28T08:21:14;-9.57;118.99
75217;HTU21D;63800;51.972;5.682;2023-12-28T08:23:39;-9.57;118.99
75217;HTU21D;63800;51.972;5.682;2023-12-28T08:26:05;-9.55;118.99
75217;HTU21D;63800;51.972;5.682;2023-12-28T08:28:32;-9.54;118.99
75217;HTU21D;63800;51.972;5.682;2023-12-28T08:30:58;-9.54;118.99
75217;HTU21D;63800;51.972;5.682;2023-12-28T08:33:23;-9.53;118.99
75217;HTU21D;63800;51.972;5.682;2023-12-28T08:35:49;-9.49;118.99
75217;HTU21D;63800;51.972;5.682;2023-12-28T08:38:14;-9.52;118.99
75217;HTU21D;63800;51.972;5.682;2023-12-28T08:40:40;-9.48;118.99
75217;HTU21D;63800;51.972;5.682;2023-12-28T08:43:06;-9.49;118.99
75217;HTU21D;63800;51.972;5.682;2023-12-28T08:45:31;-9.52;118.99
75217;HTU21D;63800;51.972;5.682;2023-12-28T08:47:57;-9.51;118.99
75217;HTU21D;63800;51.972;5.682;2023-12-28T08:50:22;-9.49;118.99
75217;HTU21D;63800;51.972;5.682;2023-12-28T08:52:48;-9.53;118.99
75217;HTU21D;63800;51.972;5.682;2023-12-28T08:55:13;-9.51;118.99
75217;HTU21D;63800;51.972;5.682;2023-12-28T08:57:39;-9.47;118.99
75217;HTU21D;63800;51.972;5.682;2023-12-28T09:00:06;-9.46;118.99
75217;HTU21D;63800;51.972;5.682;2023-12-28T09:02:31;-9.49;118.99
75217;HTU21D;63800;51.972;5.682;2023-12-28T09:05:00;-9.48;118.99
75217;HTU21D;63800;51.972;5.682;2023-12-28T09:07:26;-9.46;118.99
75217;HTU21D;63800;51.972;5.682;2023-12-28T09:09:51;-9.43;118.99
75217;HTU21D;63800;51.972;5.682;2023-12-28T09:12:17;-9.42;118.99
75217;HTU21D;63800;51.972;5.682;2023-12-28T09:14:42;-9.45;118.99
75217;HTU21D;63800;51.972;5.682;2023-12-28T09:17:08;-9.46;118.99
75217;HTU21D;63800;51.972;5.682;2023-12-28T09:19:33;-9.44;118.99
75217;HTU21D;63800;51.972;5.682;2023-12-28T09:21:58;-9.45;118.99
75217;HTU21D;63800;51.972;5.682;2023-12-28T09:24:24;-9.40;118.99
75217;HTU21D;63800;51.972;5.682;2023-12-28T09:26:49;-9.41;118.99
75217;HTU21D;63800;51.972;5.682;2023-12-28T09:29:15;-9.39;118.99
75217;HTU21D;63800;51.972;5.682;2023-12-28T09:31:41;-9.41;118.99
75217;HTU21D;63800;51.972;5.682;2023-12-28T09:34:06;-9.38;118.99
75217;HTU21D;63800;51.972;5.682;2023-12-28T09:36:32;-9.38;118.99
75217;HTU21D;63800;51.972;5.682;2023-12-28T09:38:57;-9.38;118.99
75217;HTU21D;63800;51.972;5.682;2023-12-28T09:41:27;-9.39;118.99
75217;HTU21D;63800;51.972;5.682;2023-12-28T09:44:05;-9.39;118.99
75217;HTU21D;63800;51.972;5.682;2023-12-28T09:46:32;-9.33;118.99
75217;HTU21D;63800;51.972;5.682;2023-12-28T09:48:58;-9.30;118.99
75217;HTU21D;63800;51.972;5.682;2023-12-28T09:51:25;-9.31;118.99
75217;HTU21D;63800;51.972;5.682;2023-12-28T09:53:51;-9.28;118.99
75217;HTU21D;63800;51.972;5.682;2023-12-28T09:56:16;-9.30;118.99
75217;HTU21D;63800;51.972;5.682;2023-12-28T09:58:42;-9.32;118.99
75217;HTU21D;63800;51.972;5.682;2023-12-28T10:01:09;-9.36;118.99
75217;HTU21D;63800;51.972;5.682;2023-12-28T10:03:35;-9.32;118.99
75217;HTU21D;63800;51.972;5.682;2023-12-28T10:06:00;-9.38;118.99
75217;HTU21D;63800;51.972;5.682;2023-12-28T10:08:26;-9.38;118.99
75217;HTU21D;63800;51.972;5.682;2023-12-28T10:10:52;-9.34;118.99
75217;HTU21D;63800;51.972;5.682;2023-12-28T10:13:20;-9.33;118.99
75217;HTU21D;63800;51.972;5.682;2023-12-28T10:15:46;-9.30;118.99
75217;HTU21D;63800;51.972;5.682;2023-12-28T10:18:12;-9.27;118.99
75217;HTU21D;63800;51.972;5.682;2023-12-28T10:20:38;-9.25;118.99
75217;HTU21D;63800;51.972;5.682;2023-12-28T10:23:04;-9.24;118.99
75217;HTU21D;63800;51.972;5.682;2023-12-28T10:25:31;-9.19;118.99
75217;HTU21D;63800;51.972;5.682;2023-12-28T10:27:58;-9.17;118.99
75217;HTU21D;63800;51.972;5.682;2023-12-28T10:30:24;-9.15;118.99
75217;HTU21D;63800;51.972;5.682;2023-12-28T10:32:49;-9.16;118.99
75217;HTU21D;63800;51.972;5.682;2023-12-28T10:35:15;-9.15;118.99
75217;HTU21D;63800;51.972;5.682;2023-12-28T10:37:41;-9.23;118.99
75217;HTU21D;63800;51.972;5.682;2023-12-28T10:40:08;-9.23;118.99
75217;HTU21D;63800;51.972;5.682;2023-12-28T10:42:54;-9.20;118.99
75217;HTU21D;63800;51.972;5.682;2023-12-28T10:45:20;-9.20;118.99
75217;HTU21D;63800;51.972;5.682;2023-12-28T10:48:04;-9.24;118.99
75217;HTU21D;63800;51.972;5.682;2023-12-28T10:50:41;-9.24;118.99
75217;HTU21D;63800;51.972;5.682;2023-12-28T11:01:31;-9.19;118.99
75217;HTU21D;63800;51.972;5.682;2023-12-28T11:04:07;-9.23;118.99
75217;HTU21D;63800;51.972;5.682;2023-12-28T11:06:36;-9.20;118.99
75217;HTU21D;63800;51.972;5.682;2023-12-28T11:09:03;-9.24;118.99
75217;HTU21D;63800;51.972;5.682;2023-12-28T11:11:31;-9.23;118.99
75217;HTU21D;63800;51.972;5.682;2023-12-28T11:13:59;-9.23;118.99
75217;HTU21D;63800;51.972;5.682;2023-12-28T11:16:26;-9.24;118.99
75217;HTU21D;63800;51.972;5.682;2023-12-28T11:18:53;-9.23;118.99
75217;HTU21D;63800;51.972;5.682;2023-12-28T11:21:19;-9.22;118.99
75217;HTU21D;63800;51.972;5.682;2023-12-28T11:23:46;-9.23;118.99
75217;HTU21D;63800;51.972;5.682;2023-12-28T11:26:17;-9.19;118.99
75217;HTU21D;63800;51.972;5.682;2023-12-28T11:28:43;-9.11;118.99
75217;HTU21D;63800;51.972;5.682;2023-12-28T11:31:16;-9.08;118.99
75217;HTU21D;63800;51.972;5.682;2023-12-28T11:33:46;-9.13;118.99
75217;HTU21D;63800;51.972;5.682;2023-12-28T11:36:22;-9.13;118.99
75217;HTU21D;63800;51.972;5.682;2023-12-28T11:38:51;-9.15;118.99
75217;HTU21D;63800;51.972;5.682;2023-12-28T11:41:20;-9.13;118.99
75217;HTU21D;63800;51.972;5.682;2023-12-28T11:43:54;-9.17;118.99
75217;HTU21D;63800;51.972;5.682;2023-12-28T11:46:22;-9.19;118.99
75217;HTU21D;63800;51.972;5.682;2023-12-28T11:48:48;-9.23;118.99
75217;HTU21D;63800;51.972;5.682;2023-12-28T11:51:14;-9.22;118.99
75217;HTU21D;63800;51.972;5.682;2023-12-28T11:53:41;-9.25;118.99
75217;HTU21D;63800;51.972;5.682;2023-12-28T11:56:07;-9.26;118.99
75217;HTU21D;63800;51.972;5.682;2023-12-28T11:58:35;-9.23;118.99
75217;HTU21D;63800;51.972;5.682;2023-12-28T12:01:02;-9.24;118.99
75217;HTU21D;63800;51.972;5.682;2023-12-28T12:03:27;-9.20;118.99
75217;HTU21D;63800;51.972;5.682;2023-12-28T12:05:55;-9.19;118.99
75217;HTU21D;63800;51.972;5.682;2023-12-28T12:08:22;-9.23;118.99
75217;HTU21D;63800;51.972;5.682;2023-12-28T12:10:47;-9.23;118.99
75217;HTU21D;63800;51.972;5.682;2023-12-28T12:13:14;-9.20;118.99
75217;HTU21D;63800;51.972;5.682;2023-12-28T12:15:39;-9.23;118.99
75217;HTU21D;63800;51.972;5.682;2023-12-28T12:18:05;-9.17;118.99
75217;HTU21D;63800;51.972;5.682;2023-12-28T12:20:31;-9.12;118.99
75217;HTU21D;63800;51.972;5.682;2023-12-28T12:22:59;-9.10;118.99
75217;HTU21D;63800;51.972;5.682;2023-12-28T12:25:26;-9.13;118.99
75217;HTU21D;63800;51.972;5.682;2023-12-28T12:27:52;-9.17;118.99
75217;HTU21D;63800;51.972;5.682;2023-12-28T12:30:19;-9.16;118.99
75217;HTU21D;63800;51.972;5.682;2023-12-28T12:32:44;-9.16;118.99
75217;HTU21D;63800;51.972;5.682;2023-12-28T12:35:11;-9.14;118.99
75217;HTU21D;63800;51.972;5.682;2023-12-28T12:37:37;-9.10;118.99
75217;HTU21D;63800;51.972;5.682;2023-12-28T12:40:03;-9.08;118.99
75217;HTU21D;63800;51.972;5.682;2023-12-28T12:42:30;-9.11;118.99
75217;HTU21D;63800;51.972;5.682;2023-12-28T12:44:56;-9.12;118.99
75217;HTU21D;63800;51.972;5.682;2023-12-28T12:47:22;-9.13;118.99
75217;HTU21D;63800;51.972;5.682;2023-12-28T12:49:48;-9.15;118.99
75217;HTU21D;63800;51.972;5.682;2023-12-28T12:52:16;-9.12;118.99
75217;HTU21D;63800;51.972;5.682;2023-12-28T12:54:41;-9.14;118.99
75217;HTU21D;63800;51.972;5.682;2023-12-28T12:57:08;-9.18;118.99
75217;HTU21D;63800;51.972;5.682;2023-12-28T12:59:33;-9.14;118.99
75217;HTU21D;63800;51.972;5.682;2023-12-28T13:02:00;-9.15;118.99
75217;HTU21D;63800;51.972;5.682;2023-12-28T13:04:26;-9.18;118.99
75217;HTU21D;63800;51.972;5.682;2023-12-28T13:06:52;-9.13;118.99
75217;HTU21D;63800;51.972;5.682;2023-12-28T13:09:17;-9.13;118.99
75217;HTU21D;63800;51.972;5.682;2023-12-28T13:11:43;-9.16;118.99
75217;HTU21D;63800;51.972;5.682;2023-12-28T13:14:09;-9.14;118.99
75217;HTU21D;63800;51.972;5.682;2023-12-28T13:16:34;-9.16;118.99
75217;HTU21D;63800;51.972;5.682;2023-12-28T13:19:00;-9.17;118.99
75217;HTU21D;63800;51.972;5.682;2023-12-28T13:21:25;-9.19;118.99
75217;HTU21D;63800;51.972;5.682;2023-12-28T13:23:51;-9.19;118.99
75217;HTU21D;63800;51.972;5.682;2023-12-28T13:26:16;-9.18;118.99
75217;HTU21D;63800;51.972;5.682;2023-12-28T13:28:42;-9.22;118.99
75217;HTU21D;63800;51.972;5.682;2023-12-28T13:31:08;-9.23;118.99
75217;HTU21D;63800;51.972;5.682;2023-12-28T13:33:33;-9.26;118.99
75217;HTU21D;63800;51.972;5.682;2023-12-28T13:35:58;-9.22;118.99
75217;HTU21D;63800;51.972;5.682;2023-12-28T13:38:24;-9.20;118.99
75217;HTU21D;63800;51.972;5.682;2023-12-28T13:40:49;-9.24;118.99
75217;HTU21D;63800;51.972;5.682;2023-12-28T13:43:15;-9.24;118.99
75217;HTU21D;63800;51.972;5.682;2023-12-28T13:45:40;-9.25;118.99
75217;HTU21D;63800;51.972;5.682;2023-12-28T13:48:06;-9.24;118.99
75217;HTU21D;63800;51.972;5.682;2023-12-28T13:50:32;-9.20;118.99
75217;HTU21D;63800;51.972;5.682;2023-12-28T13:52:57;-9.24;118.99
75217;HTU21D;63800;51.972;5.682;2023-12-28T13:55:23;-9.19;118.99
75217;HTU21D;63800;51.972;5.682;2023-12-28T13:57:48;-9.17;118.99
75217;HTU21D;63800;51.972;5.682;2023-12-28T14:00:14;-9.18;118.99
75217;HTU21D;63800;51.972;5.682;2023-12-28T14:02:40;-9.19;118.99
75217;HTU21D;63800;51.972;5.682;2023-12-28T14:05:06;-9.20;118.99
75217;HTU21D;63800;51.972;5.682;2023-12-28T14:07:31;-9.19;118.99
75217;HTU21D;63800;51.972;5.682;2023-12-28T14:09:57;-9.23;118.99
75217;HTU21D;63800;51.972;5.682;2023-12-28T14:12:23;-9.27;118.99
75217;HTU21D;63800;51.972;5.682;2023-12-28T14:14:48;-9.31;118.99
75217;HTU21D;63800;51.972;5.682;2023-12-28T14:17:13;-9.28;118.99
75217;HTU21D;63800;51.972;5.682;2023-12-28T14:19:40;-9.30;118.99
75217;HTU21D;63800;51.972;5.682;2023-12-28T14:22:07;-9.31;118.99
75217;HTU21D;63800;51.972;5.682;2023-12-28T14:24:32;-9.30;118.99
75217;HTU21D;63800;51.972;5.682;2023-12-28T14:26:58;-9.31;118.99
75217;HTU21D;63800;51.972;5.682;2023-12-28T14:29:24;-9.33;118.99
75217;HTU21D;63800;51.972;5.682;2023-12-28T14:31:50;-9.30;118.99
75217;HTU21D;63800;51.972;5.682;2023-12-28T14:34:15;-9.31;118.99
75217;HTU21D;63800;51.972;5.682;2023-12-28T14:36:44;-9.32;118.99
75217;HTU21D;63800;51.972;5.682;2023-12-28T14:39:14;-9.30;118.99
75217;HTU21D;63800;51.972;5.682;2023-12-28T14:41:40;-9.34;118.99
75217;HTU21D;63800;51.972;5.682;2023-12-28T14:44:05;-9.33;118.99
75217;HTU21D;63800;51.972;5.682;2023-12-28T14:46:31;-9.36;118.99
75217;HTU21D;63800;51.972;5.682;2023-12-28T14:48:57;-9.37;118.99
75217;HTU21D;63800;51.972;5.682;2023-12-28T14:51:22;-9.33;118.99
75217;HTU21D;63800;51.972;5.682;2023-12-28T14:53:48;-9.33;118.99
75217;HTU21D;63800;51.972;5.682;2023-12-28T14:56:13;-9.34;118.99
75217;HTU21D;63800;51.972;5.682;2023-12-28T14:58:39;-9.36;118.99
75217;HTU21D;63800;51.972;5.682;2023-12-28T15:01:06;-9.33;118.99
75217;HTU21D;63800;51.972;5.682;2023-12-28T15:03:31;-9.32;118.99
75217;HTU21D;63800;51.972;5.682;2023-12-28T15:05:57;-9.34;118.99